CheckWX is a tool to help pilots better visualize weather data.  It is not intended as a substitute for an official pre-flight weather briefing.

05:12:55 UTC

EHFS METAR
Vlissingen
Vlissingen, The Netherlands
Current

18 mins ago

EHFS 240455Z AUTO 10005KT 9999 NCD 05/03 Q1035 W///H///
Observed
Feb-24 @ 04:55 UTC
Wind
  • 100° at 5 KTS
Visibility
10,000+ meters
Flight Rules
VFR
Cloud Levels
  • Clear skies
Temperature
C / 41°F
Dewpoint
C / 37°F
Humidity
87%
Altimeter
30.56" Hg
Pressure
1034.91 hPa
Previous

48 mins ago

EHFS 240425Z AUTO 11005KT 9999 NCD 05/02 Q1035 W///H///
Observed
Feb-24 @ 04:25 UTC
Wind
  • 110° at 5 KTS
Visibility
10,000+ meters
Flight Rules
VFR
Cloud Levels
  • Clear skies
Temperature
C / 41°F
Dewpoint
C / 36°F
Humidity
81%
Altimeter
30.56" Hg
Pressure
1034.91 hPa
Previous

1 hour ago

EHFS 240355Z AUTO 11004KT 9999 NCD 06/03 Q1035 W///H///
Observed
Feb-24 @ 03:55 UTC
Wind
  • 110° at 4 KTS
Visibility
10,000+ meters
Flight Rules
VFR
Cloud Levels
  • Clear skies
Temperature
C / 43°F
Dewpoint
C / 37°F
Humidity
81%
Altimeter
30.56" Hg
Pressure
1034.91 hPa